createdAt,value
2018-03-31T00:00:24.334Z,0.00
2018-03-31T00:01:24.546Z,0.00
2018-03-31T00:02:24.771Z,0.00
2018-03-31T00:03:24.963Z,0.00
2018-03-31T00:04:25.182Z,0.00
2018-03-31T00:05:29.038Z,0.00
2018-03-31T00:06:25.611Z,0.00
2018-03-31T00:07:25.824Z,0.00
2018-03-31T00:08:26.036Z,0.00
2018-03-31T00:09:26.244Z,0.00
2018-03-31T00:10:26.458Z,0.00
2018-03-31T00:11:26.680Z,0.00
2018-03-31T00:12:26.875Z,0.00
2018-03-31T00:13:27.088Z,0.00
2018-03-31T00:14:27.294Z,0.00
2018-03-31T00:15:27.495Z,0.00
2018-03-31T00:16:27.703Z,0.00
2018-03-31T00:17:29.542Z,0.00
2018-03-31T00:18:28.117Z,0.00
2018-03-31T00:19:28.330Z,0.00
2018-03-31T00:20:32.048Z,0.00
2018-03-31T00:21:28.750Z,0.00
2018-03-31T00:22:28.967Z,0.00
2018-03-31T00:23:29.168Z,0.00
2018-03-31T00:24:29.382Z,0.00
2018-03-31T00:25:29.590Z,0.00
2018-03-31T00:26:29.797Z,0.00
2018-03-31T00:27:30.002Z,0.00
2018-03-31T00:28:30.210Z,0.00
2018-03-31T00:29:30.424Z,0.00
2018-03-31T00:30:30.628Z,0.00
2018-03-31T00:31:30.835Z,0.00
2018-03-31T00:32:31.041Z,0.00
2018-03-31T00:33:31.244Z,0.00
2018-03-31T00:34:31.447Z,0.00
2018-03-31T00:35:31.664Z,0.00
2018-03-31T00:36:31.871Z,0.00
2018-03-31T00:37:32.080Z,0.00
2018-03-31T00:38:32.289Z,0.00
2018-03-31T00:39:32.493Z,0.00
2018-03-31T00:40:32.700Z,0.00
2018-03-31T00:41:32.911Z,0.00
2018-03-31T00:42:33.122Z,0.00
2018-03-31T00:43:33.335Z,0.00
2018-03-31T00:44:33.554Z,0.00
2018-03-31T00:45:33.762Z,0.00
2018-03-31T00:46:33.973Z,0.00
2018-03-31T00:47:34.185Z,0.00
2018-03-31T00:48:34.393Z,0.00
2018-03-31T00:49:34.613Z,0.00
2018-03-31T00:50:34.822Z,0.00
2018-03-31T00:51:35.034Z,0.00
2018-03-31T00:52:39.041Z,0.00
2018-03-31T00:53:35.367Z,0.00
2018-03-31T00:54:35.577Z,0.00
2018-03-31T00:55:35.785Z,0.00
2018-03-31T00:56:35.993Z,0.00
2018-03-31T00:57:40.040Z,0.00
2018-03-31T00:58:36.382Z,0.00
2018-03-31T00:59:36.593Z,0.00
2018-03-31T01:00:36.794Z,0.00
2018-03-31T01:01:36.994Z,0.00
2018-03-31T01:02:37.206Z,0.00
2018-03-31T01:03:37.412Z,0.00
2018-03-31T01:04:37.611Z,0.00
2018-03-31T01:05:37.823Z,0.00
2018-03-31T01:06:38.028Z,0.00
2018-03-31T01:07:38.230Z,0.00
2018-03-31T01:08:40.038Z,0.00
2018-03-31T01:09:38.617Z,0.00
2018-03-31T01:10:38.844Z,0.00
2018-03-31T01:11:39.066Z,0.00
2018-03-31T01:12:41.040Z,0.00
2018-03-31T01:13:39.498Z,0.00
2018-03-31T01:14:39.714Z,0.00
2018-03-31T01:15:39.917Z,0.00
2018-03-31T01:16:40.138Z,0.00
2018-03-31T01:17:40.337Z,0.00
2018-03-31T01:18:40.551Z,0.00
2018-03-31T01:19:40.754Z,0.00
2018-03-31T01:20:40.962Z,0.00
2018-03-31T01:21:41.196Z,0.00
2018-03-31T01:22:41.269Z,0.00
2018-03-31T01:23:41.472Z,0.00
2018-03-31T01:24:41.675Z,0.00
2018-03-31T01:25:41.878Z,0.00
2018-03-31T01:26:42.087Z,0.00
2018-03-31T01:27:42.299Z,0.00
2018-03-31T01:28:42.501Z,0.00
2018-03-31T01:29:42.715Z,0.00
2018-03-31T01:30:42.927Z,0.00
2018-03-31T01:31:47.047Z,0.00
2018-03-31T01:32:45.039Z,0.00
2018-03-31T01:33:43.363Z,0.00
2018-03-31T01:34:43.568Z,0.00
2018-03-31T01:35:43.787Z,0.00
2018-03-31T01:36:43.984Z,0.00
2018-03-31T01:37:44.195Z,0.00
2018-03-31T01:38:44.408Z,0.00
2018-03-31T01:39:44.607Z,0.00
2018-03-31T01:40:47.549Z,0.00
2018-03-31T01:41:45.021Z,0.00
2018-03-31T01:42:45.223Z,0.00
2018-03-31T01:43:45.426Z,0.00
2018-03-31T01:44:45.629Z,0.00
2018-03-31T01:45:45.850Z,0.00
2018-03-31T01:46:46.059Z,0.00
2018-03-31T01:47:46.264Z,0.00
2018-03-31T01:48:46.481Z,0.00
2018-03-31T01:49:46.694Z,0.00
2018-03-31T01:50:46.898Z,0.00
2018-03-31T01:51:47.119Z,0.00
2018-03-31T01:52:47.323Z,0.00
2018-03-31T01:53:47.540Z,0.00
2018-03-31T01:54:47.752Z,0.00
2018-03-31T01:55:47.962Z,0.00
2018-03-31T01:56:48.171Z,0.00
2018-03-31T01:57:48.391Z,0.00
2018-03-31T01:58:50.539Z,0.00
2018-03-31T01:59:48.747Z,0.00
2018-03-31T02:00:48.971Z,0.00
2018-03-31T02:01:49.160Z,0.00
2018-03-31T02:02:49.375Z,0.00
2018-03-31T02:03:49.586Z,0.00
2018-03-31T02:04:49.783Z,0.00
2018-03-31T02:05:49.997Z,0.00
2018-03-31T02:06:50.210Z,0.00
2018-03-31T02:07:50.412Z,0.00
2018-03-31T02:08:50.623Z,0.00
2018-03-31T02:09:50.825Z,0.00
2018-03-31T02:10:51.030Z,0.00
2018-03-31T02:11:53.044Z,0.00
2018-03-31T02:12:51.363Z,0.00
2018-03-31T02:13:51.573Z,0.00
2018-03-31T02:14:51.778Z,0.00
2018-03-31T02:15:51.992Z,0.00
2018-03-31T02:16:52.207Z,0.00
2018-03-31T02:17:52.413Z,0.00
2018-03-31T02:18:59.542Z,0.00
2018-03-31T02:19:54.538Z,0.00
2018-03-31T02:20:52.874Z,0.00
2018-03-31T02:21:53.080Z,0.00
2018-03-31T02:22:53.295Z,0.00
2018-03-31T02:23:53.533Z,0.00
2018-03-31T02:24:53.707Z,0.00
2018-03-31T02:25:53.919Z,0.00
2018-03-31T02:26:54.125Z,0.00
2018-03-31T02:27:56.046Z,0.00
2018-03-31T02:28:54.499Z,0.00
2018-03-31T02:29:54.701Z,0.00
2018-03-31T02:30:56.544Z,0.00
2018-03-31T02:31:59.048Z,0.00
2018-03-31T02:32:55.242Z,0.00
2018-03-31T02:33:55.452Z,0.00
2018-03-31T02:34:57.542Z,0.00
2018-03-31T02:35:55.875Z,0.00
2018-03-31T02:36:56.077Z,0.00
2018-03-31T02:37:56.289Z,0.00
2018-03-31T02:38:56.499Z,0.00
2018-03-31T02:39:56.705Z,0.00
2018-03-31T02:40:56.919Z,0.00
2018-03-31T02:41:57.117Z,0.00
2018-03-31T02:42:57.321Z,0.00
2018-03-31T02:43:57.532Z,0.00
2018-03-31T02:44:59.542Z,0.00
2018-03-31T02:46:00.544Z,0.00
2018-03-31T02:46:57.995Z,0.00
2018-03-31T02:47:58.202Z,0.00
2018-03-31T02:48:58.405Z,0.00
2018-03-31T02:49:58.619Z,0.00
2018-03-31T02:50:58.827Z,0.00
2018-03-31T02:52:00.546Z,0.00
2018-03-31T02:52:59.264Z,0.00
2018-03-31T02:53:59.470Z,0.00
2018-03-31T02:54:59.688Z,0.00
2018-03-31T02:55:59.898Z,0.00
2018-03-31T02:57:01.617Z,0.00
2018-03-31T02:58:00.327Z,0.00
2018-03-31T02:59:00.536Z,0.00
2018-03-31T03:00:00.742Z,0.00
2018-03-31T03:01:04.542Z,0.00
2018-03-31T03:02:01.112Z,0.00
2018-03-31T03:03:01.330Z,0.00
2018-03-31T03:04:01.543Z,0.00
2018-03-31T03:05:01.783Z,0.00
2018-03-31T03:06:02.008Z,0.00
2018-03-31T03:07:04.044Z,0.00
2018-03-31T03:08:02.254Z,0.00
2018-03-31T03:09:02.453Z,0.00
2018-03-31T03:10:02.666Z,0.00
2018-03-31T03:11:02.875Z,0.00
2018-03-31T03:12:03.094Z,0.00
2018-03-31T03:13:03.291Z,0.00
2018-03-31T03:14:03.504Z,0.00
2018-03-31T03:15:03.705Z,0.00
2018-03-31T03:16:03.906Z,0.00
2018-03-31T03:17:04.118Z,0.00
2018-03-31T03:18:04.330Z,0.00
2018-03-31T03:19:04.531Z,0.00
2018-03-31T03:20:06.541Z,0.00
2018-03-31T03:21:04.870Z,0.00
2018-03-31T03:22:05.068Z,0.00
2018-03-31T03:23:05.277Z,0.00
2018-03-31T03:24:05.481Z,0.00
2018-03-31T03:25:05.693Z,0.00
2018-03-31T03:26:05.905Z,0.00
2018-03-31T03:27:06.106Z,0.00
2018-03-31T03:28:06.310Z,0.00
2018-03-31T03:29:06.520Z,0.00
2018-03-31T03:30:08.542Z,0.00
2018-03-31T03:31:06.873Z,0.00
2018-03-31T03:32:07.074Z,0.00
2018-03-31T03:33:07.290Z,0.00
2018-03-31T03:34:09.041Z,0.00
2018-03-31T03:35:07.627Z,0.00
2018-03-31T03:36:07.830Z,0.00
2018-03-31T03:37:08.036Z,0.00
2018-03-31T03:38:08.244Z,0.00
2018-03-31T03:39:08.460Z,0.00
2018-03-31T03:40:08.682Z,0.00
2018-03-31T03:41:08.892Z,0.00
2018-03-31T03:42:11.045Z,0.00
2018-03-31T03:43:09.251Z,0.00
2018-03-31T03:44:09.460Z,0.00
2018-03-31T03:45:09.676Z,0.00
2018-03-31T03:46:09.879Z,0.00
2018-03-31T03:47:12.052Z,0.00
2018-03-31T03:48:10.273Z,0.00
2018-03-31T03:49:12.049Z,0.00
2018-03-31T03:50:10.627Z,0.00
2018-03-31T03:51:12.550Z,0.00
2018-03-31T03:52:10.992Z,0.00
2018-03-31T03:53:11.209Z,0.00
2018-03-31T03:54:11.407Z,0.00
2018-03-31T03:55:11.624Z,0.00
2018-03-31T03:56:11.827Z,0.00
2018-03-31T03:57:13.546Z,0.00
2018-03-31T03:58:12.251Z,0.00
2018-03-31T03:59:12.459Z,0.00
2018-03-31T04:00:12.679Z,0.00
2018-03-31T04:01:16.540Z,0.00
2018-03-31T04:02:13.114Z,0.00
2018-03-31T04:03:13.334Z,0.00
2018-03-31T04:04:13.533Z,0.00
2018-03-31T04:05:13.734Z,0.00
2018-03-31T04:06:13.948Z,0.00
2018-03-31T04:07:16.054Z,0.00
2018-03-31T04:08:14.374Z,0.00
2018-03-31T04:09:14.587Z,0.00
2018-03-31T04:10:16.543Z,0.00
2018-03-31T04:11:15.005Z,0.00
2018-03-31T04:12:15.227Z,0.00
2018-03-31T04:13:15.420Z,0.00
2018-03-31T04:14:15.641Z,0.00
2018-03-31T04:15:15.856Z,0.00
2018-03-31T04:16:16.059Z,0.00
2018-03-31T04:17:16.276Z,0.00
2018-03-31T04:18:16.490Z,0.00
2018-03-31T04:19:16.692Z,0.00
2018-03-31T04:20:18.541Z,0.00
2018-03-31T04:21:17.120Z,0.00
2018-03-31T04:22:17.336Z,0.00
2018-03-31T04:23:17.545Z,0.00
2018-03-31T04:24:17.758Z,0.00
2018-03-31T04:25:17.971Z,0.00
2018-03-31T04:26:18.181Z,0.00
2018-03-31T04:27:18.384Z,0.00
2018-03-31T04:28:18.594Z,0.00
2018-03-31T04:29:18.810Z,0.00
2018-03-31T04:30:19.025Z,0.00
2018-03-31T04:31:19.241Z,0.00
2018-03-31T04:32:19.457Z,0.00
2018-03-31T04:33:19.664Z,0.00
2018-03-31T04:34:19.876Z,0.00
2018-03-31T04:35:22.047Z,0.00
2018-03-31T04:36:20.266Z,4.00
2018-03-31T04:37:20.468Z,4.00
2018-03-31T04:38:20.667Z,0.00
2018-03-31T04:39:20.879Z,4.00
2018-03-31T04:40:21.081Z,8.00
2018-03-31T04:41:21.282Z,4.00
2018-03-31T04:42:25.043Z,4.00
2018-03-31T04:43:23.547Z,8.00
2018-03-31T04:44:21.751Z,8.00
2018-03-31T04:45:21.950Z,8.00
2018-03-31T04:46:22.161Z,12.00
2018-03-31T04:47:22.373Z,12.00
2018-03-31T04:48:22.607Z,16.00
2018-03-31T04:49:22.793Z,20.00
2018-03-31T04:50:23.005Z,20.00
2018-03-31T04:51:23.212Z,24.00
2018-03-31T04:52:25.043Z,28.00
2018-03-31T04:53:23.623Z,32.00
2018-03-31T04:54:23.826Z,32.00
2018-03-31T04:55:24.035Z,36.00
2018-03-31T04:56:24.238Z,44.00
2018-03-31T04:57:24.437Z,44.00
2018-03-31T04:58:24.652Z,48.00
2018-03-31T04:59:24.849Z,56.00
2018-03-31T05:00:25.059Z,64.00
2018-03-31T05:01:29.044Z,68.00
2018-03-31T05:02:25.369Z,76.00
2018-03-31T05:03:27.554Z,84.00
2018-03-31T05:04:25.768Z,92.00
2018-03-31T05:05:27.549Z,104.00
2018-03-31T05:06:26.133Z,112.00
2018-03-31T05:07:26.344Z,120.00
2018-03-31T05:08:26.551Z,132.00
2018-03-31T05:09:26.772Z,140.00
2018-03-31T05:10:26.981Z,152.00
2018-03-31T05:11:27.191Z,168.00
2018-03-31T05:12:27.396Z,176.00
2018-03-31T05:13:27.628Z,192.00
2018-03-31T05:14:27.808Z,208.00
2018-03-31T05:15:28.031Z,224.00
2018-03-31T05:16:28.222Z,244.00
2018-03-31T05:17:28.439Z,260.00
2018-03-31T05:18:28.647Z,276.00
2018-03-31T05:19:28.841Z,292.00
2018-03-31T05:20:29.055Z,312.00
2018-03-31T05:21:29.253Z,328.00
2018-03-31T05:22:29.496Z,340.00
2018-03-31T05:23:29.679Z,352.00
2018-03-31T05:24:29.885Z,368.00
2018-03-31T05:25:32.051Z,380.00
2018-03-31T05:26:30.271Z,396.00
2018-03-31T05:27:30.476Z,408.00
2018-03-31T05:28:30.695Z,416.00
2018-03-31T05:29:30.893Z,424.00
2018-03-31T05:30:31.114Z,432.00
2018-03-31T05:31:33.054Z,440.00
2018-03-31T05:32:31.498Z,448.00
2018-03-31T05:33:31.709Z,448.00
2018-03-31T05:34:31.907Z,452.00
2018-03-31T05:35:32.117Z,452.00
2018-03-31T05:36:32.334Z,456.00
2018-03-31T05:37:32.538Z,464.00
2018-03-31T05:38:34.544Z,476.00
2018-03-31T05:39:32.866Z,484.00
2018-03-31T05:40:33.079Z,496.00
2018-03-31T05:41:33.295Z,492.00
2018-03-31T05:42:35.042Z,480.00
2018-03-31T05:43:33.622Z,460.00
2018-03-31T05:44:33.820Z,448.00
2018-03-31T05:45:34.022Z,444.00
2018-03-31T05:46:36.058Z,444.00
2018-03-31T05:47:38.047Z,432.00
2018-03-31T05:48:34.530Z,416.00
2018-03-31T05:49:36.588Z,396.00
2018-03-31T05:51:35.095Z,380.00
2018-03-31T05:52:35.298Z,376.00
2018-03-31T05:53:35.502Z,384.00
2018-03-31T05:54:35.700Z,404.00
2018-03-31T05:55:35.912Z,436.00
2018-03-31T05:56:36.123Z,480.00
2018-03-31T05:57:36.317Z,532.00
2018-03-31T05:58:36.517Z,580.00
2018-03-31T05:59:36.744Z,624.00
2018-03-31T06:00:36.952Z,664.00
2018-03-31T06:01:37.161Z,688.00
2018-03-31T06:02:39.045Z,696.00
2018-03-31T06:03:45.053Z,700.00
2018-03-31T06:04:37.624Z,696.00
2018-03-31T06:05:37.851Z,692.00
2018-03-31T06:06:38.046Z,676.00
2018-03-31T06:07:40.046Z,668.00
2018-03-31T06:08:38.372Z,656.00
2018-03-31T06:09:38.576Z,652.00
2018-03-31T06:10:38.789Z,648.00
2018-03-31T06:11:38.991Z,652.00
2018-03-31T06:12:42.046Z,668.00
2018-03-31T06:13:39.392Z,680.00
2018-03-31T06:14:39.603Z,700.00
2018-03-31T06:15:39.818Z,720.00
2018-03-31T06:16:41.560Z,744.00
2018-03-31T06:17:40.249Z,780.00
2018-03-31T06:18:40.465Z,820.00
2018-03-31T06:19:40.672Z,856.00
2018-03-31T06:20:40.875Z,896.00
2018-03-31T06:21:41.089Z,924.00
2018-03-31T06:22:41.308Z,944.00
2018-03-31T06:23:41.508Z,956.00
2018-03-31T06:24:41.725Z,952.00
2018-03-31T06:25:41.933Z,928.00
2018-03-31T06:26:48.361Z,892.00
2018-03-31T06:27:46.046Z,860.00
2018-03-31T06:28:42.510Z,844.00
2018-03-31T06:29:42.729Z,844.00
2018-03-31T06:30:42.933Z,844.00
2018-03-31T06:31:43.151Z,840.00
2018-03-31T06:32:43.372Z,828.00
2018-03-31T06:33:43.581Z,820.00
2018-03-31T06:34:43.791Z,812.00
2018-03-31T06:35:44.016Z,816.00
2018-03-31T06:36:44.215Z,816.00
2018-03-31T06:37:46.046Z,824.00
2018-03-31T06:38:44.637Z,836.00
2018-03-31T06:39:46.549Z,840.00
2018-03-31T06:40:45.012Z,856.00
2018-03-31T06:41:45.233Z,880.00
2018-03-31T06:42:45.420Z,912.00
2018-03-31T06:43:47.610Z,948.00
2018-03-31T06:44:53.549Z,972.00
2018-03-31T06:45:45.867Z,996.00
2018-03-31T06:46:46.129Z,1020.00
2018-03-31T06:47:46.286Z,1048.00
2018-03-31T06:48:46.496Z,1084.00
2018-03-31T06:49:46.751Z,1124.00
2018-03-31T06:50:48.560Z,1164.00
2018-03-31T06:51:47.148Z,1220.00
2018-03-31T06:52:47.424Z,1312.00
2018-03-31T06:53:47.562Z,1440.00
2018-03-31T06:54:47.783Z,1560.00
2018-03-31T06:55:47.985Z,1640.00
2018-03-31T06:56:48.201Z,1640.00
2018-03-31T06:57:50.046Z,1576.00
2018-03-31T06:58:48.623Z,1504.00
2018-03-31T06:59:48.843Z,1452.00
2018-03-31T07:00:49.046Z,1424.00
2018-03-31T07:01:49.247Z,1384.00
2018-03-31T07:02:49.457Z,1352.00
2018-03-31T07:03:49.691Z,1320.00
2018-03-31T07:04:49.887Z,1300.00
2018-03-31T07:05:50.098Z,1284.00
2018-03-31T07:06:50.304Z,1284.00
2018-03-31T07:07:50.520Z,1300.00
2018-03-31T07:08:50.734Z,1336.00
2018-03-31T07:09:50.944Z,1372.00
2018-03-31T07:10:51.159Z,1392.00
2018-03-31T07:11:51.374Z,1380.00
2018-03-31T07:12:51.577Z,1356.00
2018-03-31T07:13:51.781Z,1360.00
2018-03-31T07:14:51.998Z,1396.00
2018-03-31T07:15:56.412Z,1464.00
2018-03-31T07:16:52.373Z,1552.00
2018-03-31T07:17:52.584Z,1644.00
2018-03-31T07:18:52.786Z,1728.00
2018-03-31T07:19:53.000Z,1816.00
2018-03-31T07:20:55.050Z,1900.00
2018-03-31T07:21:53.377Z,1976.00
2018-03-31T07:22:53.590Z,2032.00
2018-03-31T07:23:53.799Z,2060.00
2018-03-31T07:24:55.553Z,2044.00
2018-03-31T07:25:54.125Z,2000.00
2018-03-31T07:26:54.336Z,1956.00
2018-03-31T07:27:54.540Z,1928.00
2018-03-31T07:28:54.760Z,1936.00
2018-03-31T07:29:54.975Z,1976.00
2018-03-31T07:30:55.192Z,2028.00
2018-03-31T07:31:58.049Z,2072.00
2018-03-31T07:32:55.504Z,2164.00
2018-03-31T07:33:55.715Z,2304.00
2018-03-31T07:34:55.926Z,2468.00
2018-03-31T07:35:56.131Z,2536.00
2018-03-31T07:36:56.341Z,2492.00
2018-03-31T07:37:56.566Z,2416.00
2018-03-31T07:38:56.771Z,2352.00
2018-03-31T07:39:56.997Z,2328.00
2018-03-31T07:40:57.201Z,2304.00
2018-03-31T07:42:01.047Z,2292.00
2018-03-31T07:43:01.554Z,2268.00
2018-03-31T07:43:57.765Z,2208.00
2018-03-31T07:44:57.963Z,2120.00
2018-03-31T07:46:00.114Z,2032.00
2018-03-31T07:46:58.372Z,1984.00
2018-03-31T07:47:58.587Z,1928.00
2018-03-31T07:48:58.796Z,1984.00
2018-03-31T07:49:58.998Z,1988.00
2018-03-31T07:51:03.055Z,1960.00
2018-03-31T07:51:59.412Z,1928.00
2018-03-31T07:52:59.588Z,1928.00
2018-03-31T07:53:59.802Z,1932.00
2018-03-31T07:55:01.547Z,1864.00
2018-03-31T07:56:00.125Z,1904.00
2018-03-31T07:57:00.335Z,1964.00
2018-03-31T07:58:00.546Z,2012.00
2018-03-31T07:59:00.796Z,2108.00
2018-03-31T08:00:00.963Z,2080.00
2018-03-31T08:01:01.212Z,2032.00
2018-03-31T08:02:01.428Z,2032.00
2018-03-31T08:03:01.602Z,1992.00
2018-03-31T08:04:01.807Z,1964.00
2018-03-31T08:05:03.548Z,2060.00
2018-03-31T08:06:02.131Z,2176.00
2018-03-31T08:07:04.078Z,2260.00
2018-03-31T08:08:02.520Z,2292.00
2018-03-31T08:09:02.725Z,2300.00
2018-03-31T08:10:02.965Z,2308.00
2018-03-31T08:11:03.143Z,2344.00
2018-03-31T08:12:03.344Z,2452.00
2018-03-31T08:13:03.606Z,2604.00
2018-03-31T08:14:03.774Z,2652.00
2018-03-31T08:15:05.551Z,2712.00
2018-03-31T08:16:04.124Z,2836.00
2018-03-31T08:17:04.331Z,2836.00
2018-03-31T08:18:04.554Z,2912.00
2018-03-31T08:19:04.767Z,2940.00
2018-03-31T08:20:04.990Z,2860.00
2018-03-31T08:21:07.047Z,2716.00
2018-03-31T08:22:05.371Z,2624.00
2018-03-31T08:23:05.577Z,2628.00
2018-03-31T08:24:05.784Z,2664.00
2018-03-31T08:25:05.988Z,2776.00
2018-03-31T08:26:06.209Z,2728.00
2018-03-31T08:27:06.397Z,2784.00
2018-03-31T08:28:06.615Z,2904.00
2018-03-31T08:29:06.818Z,3176.00
2018-03-31T08:30:07.020Z,3552.00
2018-03-31T08:31:07.236Z,3792.00
2018-03-31T08:32:07.449Z,3948.00
2018-03-31T08:33:07.645Z,4224.00
2018-03-31T08:34:07.855Z,4476.00
2018-03-31T08:35:08.055Z,4680.00
2018-03-31T08:36:08.255Z,4812.00
2018-03-31T08:37:08.469Z,4736.00
2018-03-31T08:38:08.670Z,4648.00
2018-03-31T08:39:08.894Z,4556.00
2018-03-31T08:40:11.049Z,4212.00
2018-03-31T08:41:09.260Z,3904.00
2018-03-31T08:42:09.464Z,3664.00
2018-03-31T08:43:09.684Z,3360.00
2018-03-31T08:44:09.883Z,3212.00
2018-03-31T08:45:10.104Z,3132.00
2018-03-31T08:46:10.300Z,3132.00
2018-03-31T08:47:10.535Z,3140.00
2018-03-31T08:48:10.726Z,3116.00
2018-03-31T08:49:10.926Z,2944.00
2018-03-31T08:50:11.138Z,2884.00
2018-03-31T08:51:11.338Z,2912.00
2018-03-31T08:52:11.554Z,2816.00
2018-03-31T08:53:11.765Z,2844.00
2018-03-31T08:54:11.966Z,2608.00
2018-03-31T08:55:12.168Z,2668.00
2018-03-31T08:56:12.379Z,2548.00
2018-03-31T08:57:12.588Z,2572.00
2018-03-31T08:58:14.551Z,2524.00
2018-03-31T08:59:13.001Z,2632.00
2018-03-31T09:00:13.219Z,2708.00
2018-03-31T09:01:13.420Z,2648.00
2018-03-31T09:02:13.623Z,2768.00
2018-03-31T09:03:13.834Z,2800.00
2018-03-31T09:04:14.045Z,2700.00
2018-03-31T09:05:16.049Z,2932.00
2018-03-31T09:06:14.379Z,2912.00
2018-03-31T09:07:14.595Z,2852.00
2018-03-31T09:08:14.811Z,3016.00
2018-03-31T09:09:15.093Z,3040.00
2018-03-31T09:10:15.247Z,3088.00
2018-03-31T09:11:15.457Z,3020.00
2018-03-31T09:12:15.640Z,2956.00
2018-03-31T09:13:15.866Z,2944.00
2018-03-31T09:14:16.075Z,2748.00
2018-03-31T09:15:16.289Z,2696.00
2018-03-31T09:16:16.503Z,2592.00
2018-03-31T09:17:16.719Z,2452.00
2018-03-31T09:18:16.925Z,2444.00
2018-03-31T09:19:17.143Z,2496.00
2018-03-31T09:20:17.347Z,2584.00
2018-03-31T09:21:17.561Z,2600.00
2018-03-31T09:22:17.768Z,2520.00
2018-03-31T09:23:17.986Z,2676.00
2018-03-31T09:24:18.187Z,3016.00
2018-03-31T09:25:18.385Z,2856.00
2018-03-31T09:26:18.611Z,2624.00
2018-03-31T09:27:18.847Z,2700.00
2018-03-31T09:28:19.029Z,2696.00
2018-03-31T09:29:19.257Z,2596.00
2018-03-31T09:30:19.467Z,2396.00
2018-03-31T09:31:21.555Z,2348.00
2018-03-31T09:32:19.881Z,2272.00
2018-03-31T09:33:20.096Z,2352.00
2018-03-31T09:34:20.304Z,2724.00
2018-03-31T09:35:20.504Z,2812.00
2018-03-31T09:36:20.714Z,2788.00
2018-03-31T09:37:22.552Z,2792.00
2018-03-31T09:38:21.135Z,2776.00
2018-03-31T09:39:21.363Z,2680.00
2018-03-31T09:40:23.560Z,2852.00
2018-03-31T09:41:21.761Z,2812.00
2018-03-31T09:42:22.012Z,2836.00
2018-03-31T09:43:24.051Z,2904.00
2018-03-31T09:44:22.377Z,2924.00
2018-03-31T09:45:22.595Z,2968.00
2018-03-31T09:46:24.554Z,3000.00
2018-03-31T09:47:23.016Z,3080.00
2018-03-31T09:48:25.056Z,3120.00
2018-03-31T09:49:23.380Z,3080.00
2018-03-31T09:50:23.588Z,2952.00
2018-03-31T09:51:23.788Z,2948.00
2018-03-31T09:52:24.001Z,3140.00
2018-03-31T09:53:24.212Z,3076.00
2018-03-31T09:54:24.446Z,3100.00
2018-03-31T09:55:24.641Z,3052.00
2018-03-31T09:56:24.842Z,3040.00
2018-03-31T09:57:25.064Z,3180.00
2018-03-31T09:58:25.285Z,3228.00
2018-03-31T09:59:25.496Z,3200.00
2018-03-31T10:00:25.746Z,3360.00
2018-03-31T10:01:25.917Z,3316.00
2018-03-31T10:02:26.124Z,3332.00
2018-03-31T10:03:26.343Z,3480.00
2018-03-31T10:04:26.545Z,3380.00
2018-03-31T10:05:26.750Z,3304.00
2018-03-31T10:06:26.973Z,3300.00
2018-03-31T10:07:27.177Z,3428.00
2018-03-31T10:08:27.383Z,3444.00
2018-03-31T10:09:27.602Z,3416.00
2018-03-31T10:10:27.807Z,3552.00
2018-03-31T10:11:28.028Z,3644.00
2018-03-31T10:12:28.260Z,3852.00
2018-03-31T10:13:28.467Z,4200.00
2018-03-31T10:14:28.679Z,4316.00
2018-03-31T10:15:28.892Z,4368.00
2018-03-31T10:16:29.098Z,4404.00
2018-03-31T10:17:29.314Z,4500.00
2018-03-31T10:18:29.536Z,4592.00
2018-03-31T10:19:29.738Z,4640.00
2018-03-31T10:20:29.960Z,4760.00
2018-03-31T10:21:30.161Z,4940.00
2018-03-31T10:22:30.433Z,5140.00
2018-03-31T10:23:30.583Z,5264.00
2018-03-31T10:24:30.792Z,5592.00
2018-03-31T10:25:30.997Z,5768.00
2018-03-31T10:26:31.205Z,6000.00
2018-03-31T10:27:31.415Z,6180.00
2018-03-31T10:28:31.634Z,6656.00
2018-03-31T10:29:31.839Z,6948.00
2018-03-31T10:30:32.054Z,6856.00
2018-03-31T10:31:32.268Z,6636.00
2018-03-31T10:32:32.475Z,6660.00
2018-03-31T10:33:32.690Z,6464.00
2018-03-31T10:34:34.559Z,6152.00
2018-03-31T10:35:33.023Z,5944.00
2018-03-31T10:36:33.240Z,6208.00
2018-03-31T10:37:33.452Z,6368.00
2018-03-31T10:38:33.654Z,6128.00
2018-03-31T10:39:33.872Z,5916.00
2018-03-31T10:40:34.075Z,5620.00
2018-03-31T10:41:34.279Z,5220.00
2018-03-31T10:42:34.496Z,5204.00
2018-03-31T10:43:34.701Z,5652.00
2018-03-31T10:44:34.902Z,5736.00
2018-03-31T10:45:35.121Z,5572.00
2018-03-31T10:46:35.329Z,5736.00
2018-03-31T10:47:35.537Z,6076.00
2018-03-31T10:48:37.555Z,6360.00
2018-03-31T10:49:35.894Z,6528.00
2018-03-31T10:50:36.107Z,6680.00
2018-03-31T10:51:36.313Z,6584.00
2018-03-31T10:52:36.529Z,6612.00
2018-03-31T10:53:36.733Z,6552.00
2018-03-31T10:54:36.940Z,6556.00
2018-03-31T10:55:37.155Z,6316.00
2018-03-31T10:56:37.372Z,6348.00
2018-03-31T10:57:37.574Z,6396.00
2018-03-31T10:58:37.795Z,6404.00
2018-03-31T10:59:38.005Z,6840.00
2018-03-31T11:00:38.209Z,6764.00
2018-03-31T11:01:38.428Z,6732.00
2018-03-31T11:02:38.636Z,6816.00
2018-03-31T11:03:40.561Z,6824.00
2018-03-31T11:04:39.031Z,7140.00
2018-03-31T11:05:55.052Z,7540.00
2018-03-31T11:06:39.379Z,7880.00
2018-03-31T11:07:39.592Z,8084.00
2018-03-31T11:08:39.803Z,8284.00
2018-03-31T11:09:40.010Z,8124.00
2018-03-31T11:10:40.216Z,8260.00
2018-03-31T11:11:40.423Z,8524.00
2018-03-31T11:12:40.638Z,9076.00
2018-03-31T11:13:40.867Z,10416.00
2018-03-31T11:14:41.060Z,11924.00
2018-03-31T11:15:41.277Z,11908.00
2018-03-31T11:16:43.058Z,11752.00
2018-03-31T11:17:41.650Z,12768.00
2018-03-31T11:18:41.858Z,13628.00
2018-03-31T11:19:42.080Z,13800.00
2018-03-31T11:20:42.291Z,13576.00
2018-03-31T11:21:42.507Z,13152.00
2018-03-31T11:22:42.720Z,13024.00
2018-03-31T11:23:42.938Z,12564.00
2018-03-31T11:24:45.069Z,11096.00
2018-03-31T11:25:43.298Z,10252.00
2018-03-31T11:26:43.493Z,9784.00
2018-03-31T11:27:43.700Z,9696.00
2018-03-31T11:28:43.940Z,9804.00
2018-03-31T11:29:44.163Z,10512.00
2018-03-31T11:30:47.064Z,11952.00
2018-03-31T11:31:44.525Z,11840.00
2018-03-31T11:32:44.742Z,10904.00
2018-03-31T11:33:44.945Z,10360.00
2018-03-31T11:34:45.163Z,10224.00
2018-03-31T11:35:45.367Z,10020.00
2018-03-31T11:36:47.566Z,9376.00
2018-03-31T11:37:45.787Z,9012.00
2018-03-31T11:38:45.983Z,8864.00
2018-03-31T11:39:46.199Z,8800.00
2018-03-31T11:40:46.408Z,9028.00
2018-03-31T11:41:46.631Z,9080.00
2018-03-31T11:42:46.846Z,9172.00
2018-03-31T11:43:47.057Z,9644.00
2018-03-31T11:44:50.060Z,10216.00
2018-03-31T11:45:47.405Z,10480.00
2018-03-31T11:46:47.616Z,10088.00
2018-03-31T11:47:47.869Z,10292.00
2018-03-31T11:48:48.041Z,10980.00
2018-03-31T11:49:48.253Z,11716.00
2018-03-31T11:50:48.473Z,12408.00
2018-03-31T11:51:50.574Z,12588.00
2018-03-31T11:52:48.923Z,12468.00
2018-03-31T11:53:51.068Z,12128.00
2018-03-31T11:54:49.270Z,11784.00
2018-03-31T11:55:51.058Z,11412.00
2018-03-31T11:56:49.660Z,10720.00
2018-03-31T11:57:49.870Z,10180.00
2018-03-31T11:58:52.057Z,10156.00
2018-03-31T11:59:50.292Z,10496.00
2018-03-31T12:00:52.081Z,10804.00
2018-03-31T12:01:54.078Z,11524.00
2018-03-31T12:02:50.678Z,13208.00
2018-03-31T12:03:50.894Z,14088.00
2018-03-31T12:04:51.116Z,13112.00
2018-03-31T12:05:51.217Z,12028.00
2018-03-31T12:06:51.438Z,11560.00
2018-03-31T12:07:51.653Z,11268.00
2018-03-31T12:08:51.876Z,11412.00
2018-03-31T12:09:54.058Z,11704.00
2018-03-31T12:10:52.268Z,12880.00
2018-03-31T12:11:58.475Z,13528.00
2018-03-31T12:12:54.559Z,13484.00
2018-03-31T12:13:55.062Z,12112.00
2018-03-31T12:14:53.033Z,11056.00
2018-03-31T12:15:53.242Z,10336.00
2018-03-31T12:16:53.449Z,10088.00
2018-03-31T12:17:53.587Z,9624.00
2018-03-31T12:18:55.563Z,9032.00
2018-03-31T12:19:54.035Z,9312.00
2018-03-31T12:20:56.061Z,8740.00
2018-03-31T12:21:54.393Z,8304.00
2018-03-31T12:22:56.593Z,7948.00
2018-03-31T12:23:54.814Z,8164.00
2018-03-31T12:24:55.016Z,9224.00
2018-03-31T12:25:55.234Z,12420.00
2018-03-31T12:26:55.692Z,16576.00
2018-03-31T12:27:56.581Z,18912.00
2018-03-31T12:28:58.577Z,20928.00
2018-03-31T12:29:56.611Z,21504.00
2018-03-31T12:30:56.312Z,24832.00
2018-03-31T12:31:58.618Z,27168.00
2018-03-31T12:32:56.993Z,27072.00
2018-03-31T12:33:57.487Z,23008.00
2018-03-31T12:34:58.567Z,24672.00
2018-03-31T12:36:04.951Z,17376.00
2018-03-31T12:36:57.183Z,16416.00